sensor_id;sensor_type;location;lat;lon;timestamp;P1;durP1;ratioP1;P2;durP2;ratioP2
20375;SDS011;10347;51.828;6.466;2024-02-26T00:00:10;3.85;;;3.00;;
20375;SDS011;10347;51.828;6.466;2024-02-26T00:02:36;2.55;;;2.45;;
20375;SDS011;10347;51.828;6.466;2024-02-26T00:05:08;2.78;;;2.58;;
20375;SDS011;10347;51.828;6.466;2024-02-26T00:07:33;2.60;;;2.40;;
20375;SDS011;10347;51.828;6.466;2024-02-26T00:09:59;2.78;;;2.50;;
20375;SDS011;10347;51.828;6.466;2024-02-26T00:12:25;2.28;;;2.10;;
20375;SDS011;10347;51.828;6.466;2024-02-26T00:14:50;4.07;;;2.80;;
20375;SDS011;10347;51.828;6.466;2024-02-26T00:17:17;2.63;;;2.40;;
20375;SDS011;10347;51.828;6.466;2024-02-26T00:19:43;2.75;;;2.55;;
20375;SDS011;10347;51.828;6.466;2024-02-26T00:22:08;3.13;;;2.50;;
20375;SDS011;10347;51.828;6.466;2024-02-26T00:24:34;2.50;;;2.30;;
20375;SDS011;10347;51.828;6.466;2024-02-26T00:27:00;2.88;;;2.35;;
20375;SDS011;10347;51.828;6.466;2024-02-26T00:29:25;2.80;;;2.38;;
20375;SDS011;10347;51.828;6.466;2024-02-26T00:31:51;2.50;;;2.30;;
20375;SDS011;10347;51.828;6.466;2024-02-26T00:34:16;3.17;;;2.50;;
20375;SDS011;10347;51.828;6.466;2024-02-26T00:36:42;3.67;;;2.78;;
20375;SDS011;10347;51.828;6.466;2024-02-26T00:39:08;3.70;;;2.70;;
20375;SDS011;10347;51.828;6.466;2024-02-26T00:41:37;2.70;;;2.50;;
20375;SDS011;10347;51.828;6.466;2024-02-26T00:44:04;2.70;;;2.50;;
20375;SDS011;10347;51.828;6.466;2024-02-26T00:46:29;3.22;;;2.50;;
20375;SDS011;10347;51.828;6.466;2024-02-26T00:48:55;2.50;;;2.30;;
20375;SDS011;10347;51.828;6.466;2024-02-26T00:51:20;2.30;;;2.20;;
20375;SDS011;10347;51.828;6.466;2024-02-26T00:53:46;4.20;;;2.60;;
20375;SDS011;10347;51.828;6.466;2024-02-26T00:56:11;2.83;;;2.40;;
20375;SDS011;10347;51.828;6.466;2024-02-26T00:58:37;2.92;;;2.63;;
20375;SDS011;10347;51.828;6.466;2024-02-26T01:01:02;3.53;;;2.47;;
20375;SDS011;10347;51.828;6.466;2024-02-26T01:03:28;2.63;;;2.38;;
20375;SDS011;10347;51.828;6.466;2024-02-26T01:05:54;2.58;;;2.38;;
20375;SDS011;10347;51.828;6.466;2024-02-26T01:08:19;3.60;;;2.67;;
20375;SDS011;10347;51.828;6.466;2024-02-26T01:10:45;2.65;;;2.40;;
20375;SDS011;10347;51.828;6.466;2024-02-26T01:13:11;2.95;;;2.20;;
20375;SDS011;10347;51.828;6.466;2024-02-26T01:15:36;2.75;;;2.35;;
20375;SDS011;10347;51.828;6.466;2024-02-26T01:18:02;2.75;;;2.30;;
20375;SDS011;10347;51.828;6.466;2024-02-26T01:20:27;2.97;;;2.47;;
20375;SDS011;10347;51.828;6.466;2024-02-26T01:22:53;2.85;;;2.55;;
20375;SDS011;10347;51.828;6.466;2024-02-26T01:25:19;2.60;;;2.30;;
20375;SDS011;10347;51.828;6.466;2024-02-26T01:27:44;2.60;;;2.40;;
20375;SDS011;10347;51.828;6.466;2024-02-26T01:30:10;2.60;;;2.40;;
20375;SDS011;10347;51.828;6.466;2024-02-26T01:32:36;2.88;;;2.40;;
20375;SDS011;10347;51.828;6.466;2024-02-26T01:35:02;8.48;;;2.78;;
20375;SDS011;10347;51.828;6.466;2024-02-26T01:37:28;2.20;;;2.10;;
20375;SDS011;10347;51.828;6.466;2024-02-26T01:39:57;2.95;;;2.50;;
20375;SDS011;10347;51.828;6.466;2024-02-26T01:42:22;3.22;;;2.20;;
20375;SDS011;10347;51.828;6.466;2024-02-26T01:44:48;2.10;;;2.00;;
20375;SDS011;10347;51.828;6.466;2024-02-26T01:47:14;2.35;;;2.15;;
20375;SDS011;10347;51.828;6.466;2024-02-26T01:49:39;2.50;;;2.30;;
20375;SDS011;10347;51.828;6.466;2024-02-26T01:52:06;3.88;;;2.40;;
20375;SDS011;10347;51.828;6.466;2024-02-26T01:54:35;3.20;;;2.38;;
20375;SDS011;10347;51.828;6.466;2024-02-26T01:57:02;2.70;;;2.50;;
20375;SDS011;10347;51.828;6.466;2024-02-26T01:59:30;2.47;;;2.38;;
20375;SDS011;10347;51.828;6.466;2024-02-26T02:01:57;2.50;;;2.40;;
20375;SDS011;10347;51.828;6.466;2024-02-26T02:04:26;2.50;;;2.30;;
20375;SDS011;10347;51.828;6.466;2024-02-26T02:06:52;2.72;;;2.53;;
20375;SDS011;10347;51.828;6.466;2024-02-26T02:09:19;2.55;;;2.33;;
20375;SDS011;10347;51.828;6.466;2024-02-26T02:11:45;4.35;;;2.70;;
20375;SDS011;10347;51.828;6.466;2024-02-26T02:14:11;2.58;;;2.40;;
20375;SDS011;10347;51.828;6.466;2024-02-26T02:16:37;2.78;;;2.50;;
20375;SDS011;10347;51.828;6.466;2024-02-26T02:19:02;2.70;;;2.53;;
20375;SDS011;10347;51.828;6.466;2024-02-26T02:21:28;3.75;;;2.65;;
20375;SDS011;10347;51.828;6.466;2024-02-26T02:23:54;2.80;;;2.60;;
20375;SDS011;10347;51.828;6.466;2024-02-26T02:26:19;2.42;;;2.30;;
20375;SDS011;10347;51.828;6.466;2024-02-26T02:28:45;3.83;;;2.80;;
20375;SDS011;10347;51.828;6.466;2024-02-26T02:31:12;3.60;;;2.65;;
20375;SDS011;10347;51.828;6.466;2024-02-26T02:33:38;2.45;;;2.30;;
20375;SDS011;10347;51.828;6.466;2024-02-26T02:36:03;2.55;;;2.35;;
20375;SDS011;10347;51.828;6.466;2024-02-26T02:38:34;2.45;;;2.35;;
20375;SDS011;10347;51.828;6.466;2024-02-26T02:40:59;2.55;;;2.35;;
20375;SDS011;10347;51.828;6.466;2024-02-26T02:43:25;2.63;;;2.42;;
20375;SDS011;10347;51.828;6.466;2024-02-26T02:45:50;2.75;;;2.55;;
20375;SDS011;10347;51.828;6.466;2024-02-26T02:48:16;2.58;;;2.35;;
20375;SDS011;10347;51.828;6.466;2024-02-26T02:50:42;3.25;;;2.60;;
20375;SDS011;10347;51.828;6.466;2024-02-26T02:53:07;3.03;;;2.80;;
20375;SDS011;10347;51.828;6.466;2024-02-26T02:55:33;2.60;;;2.40;;
20375;SDS011;10347;51.828;6.466;2024-02-26T02:57:59;3.45;;;2.95;;
20375;SDS011;10347;51.828;6.466;2024-02-26T03:00:24;3.08;;;2.80;;
20375;SDS011;10347;51.828;6.466;2024-02-26T03:02:50;2.83;;;2.60;;
20375;SDS011;10347;51.828;6.466;2024-02-26T03:05:16;2.65;;;2.42;;
20375;SDS011;10347;51.828;6.466;2024-02-26T03:07:41;3.10;;;2.65;;
20375;SDS011;10347;51.828;6.466;2024-02-26T03:10:07;2.70;;;2.50;;
20375;SDS011;10347;51.828;6.466;2024-02-26T03:12:33;2.83;;;2.60;;
20375;SDS011;10347;51.828;6.466;2024-02-26T03:14:59;2.25;;;2.15;;
20375;SDS011;10347;51.828;6.466;2024-02-26T03:17:28;2.50;;;2.40;;
20375;SDS011;10347;51.828;6.466;2024-02-26T03:19:53;2.30;;;2.20;;
20375;SDS011;10347;51.828;6.466;2024-02-26T03:22:19;2.35;;;2.22;;
20375;SDS011;10347;51.828;6.466;2024-02-26T03:24:45;2.40;;;2.20;;
20375;SDS011;10347;51.828;6.466;2024-02-26T03:27:11;2.70;;;2.50;;
20375;SDS011;10347;51.828;6.466;2024-02-26T03:29:37;2.50;;;2.30;;
20375;SDS011;10347;51.828;6.466;2024-02-26T03:32:03;2.13;;;2.03;;
20375;SDS011;10347;51.828;6.466;2024-02-26T03:34:30;2.30;;;2.20;;
20375;SDS011;10347;51.828;6.466;2024-02-26T03:36:56;2.42;;;2.20;;
20375;SDS011;10347;51.828;6.466;2024-02-26T03:39:22;2.00;;;1.90;;
20375;SDS011;10347;51.828;6.466;2024-02-26T03:41:48;2.67;;;2.10;;
20375;SDS011;10347;51.828;6.466;2024-02-26T03:44:13;2.00;;;1.90;;
20375;SDS011;10347;51.828;6.466;2024-02-26T03:46:39;2.20;;;1.98;;
20375;SDS011;10347;51.828;6.466;2024-02-26T03:49:07;3.65;;;2.17;;
20375;SDS011;10347;51.828;6.466;2024-02-26T03:51:33;2.58;;;2.38;;
20375;SDS011;10347;51.828;6.466;2024-02-26T03:53:58;2.30;;;2.20;;
20375;SDS011;10347;51.828;6.466;2024-02-26T03:56:25;2.70;;;2.50;;
20375;SDS011;10347;51.828;6.466;2024-02-26T03:58:51;2.40;;;2.30;;
20375;SDS011;10347;51.828;6.466;2024-02-26T04:01:17;2.22;;;2.10;;
20375;SDS011;10347;51.828;6.466;2024-02-26T04:03:42;2.00;;;1.90;;
20375;SDS011;10347;51.828;6.466;2024-02-26T04:06:08;2.28;;;2.10;;
20375;SDS011;10347;51.828;6.466;2024-02-26T04:08:39;2.03;;;1.90;;
20375;SDS011;10347;51.828;6.466;2024-02-26T04:11:05;2.28;;;2.08;;
20375;SDS011;10347;51.828;6.466;2024-02-26T04:13:35;2.20;;;2.00;;
20375;SDS011;10347;51.828;6.466;2024-02-26T04:16:03;2.30;;;2.15;;
20375;SDS011;10347;51.828;6.466;2024-02-26T04:18:29;1.85;;;1.85;;
20375;SDS011;10347;51.828;6.466;2024-02-26T04:20:55;2.42;;;2.22;;
20375;SDS011;10347;51.828;6.466;2024-02-26T04:23:21;2.45;;;2.25;;
20375;SDS011;10347;51.828;6.466;2024-02-26T04:25:47;2.28;;;2.17;;
20375;SDS011;10347;51.828;6.466;2024-02-26T04:28:13;2.15;;;2.00;;
20375;SDS011;10347;51.828;6.466;2024-02-26T04:30:38;2.33;;;2.13;;
20375;SDS011;10347;51.828;6.466;2024-02-26T04:33:04;3.13;;;1.95;;
20375;SDS011;10347;51.828;6.466;2024-02-26T04:35:30;2.00;;;1.90;;
20375;SDS011;10347;51.828;6.466;2024-02-26T04:37:56;3.15;;;2.08;;
20375;SDS011;10347;51.828;6.466;2024-02-26T04:40:22;2.38;;;2.10;;
20375;SDS011;10347;51.828;6.466;2024-02-26T04:42:47;2.03;;;1.80;;
20375;SDS011;10347;51.828;6.466;2024-02-26T04:45:13;2.22;;;2.05;;
20375;SDS011;10347;51.828;6.466;2024-02-26T04:47:38;1.95;;;1.88;;
20375;SDS011;10347;51.828;6.466;2024-02-26T04:50:04;2.25;;;2.10;;
20375;SDS011;10347;51.828;6.466;2024-02-26T04:52:30;2.25;;;1.95;;
20375;SDS011;10347;51.828;6.466;2024-02-26T04:54:56;1.75;;;1.70;;
20375;SDS011;10347;51.828;6.466;2024-02-26T04:57:21;2.10;;;1.90;;
20375;SDS011;10347;51.828;6.466;2024-02-26T04:59:47;2.00;;;1.90;;
20375;SDS011;10347;51.828;6.466;2024-02-26T05:02:13;2.17;;;2.08;;
20375;SDS011;10347;51.828;6.466;2024-02-26T05:04:39;2.35;;;2.22;;
20375;SDS011;10347;51.828;6.466;2024-02-26T05:07:04;2.10;;;2.00;;
20375;SDS011;10347;51.828;6.466;2024-02-26T05:09:31;2.40;;;2.20;;
20375;SDS011;10347;51.828;6.466;2024-02-26T05:11:57;2.50;;;2.40;;
20375;SDS011;10347;51.828;6.466;2024-02-26T05:14:22;2.38;;;2.22;;
20375;SDS011;10347;51.828;6.466;2024-02-26T05:16:48;2.28;;;2.17;;
20375;SDS011;10347;51.828;6.466;2024-02-26T05:19:14;2.70;;;2.50;;
20375;SDS011;10347;51.828;6.466;2024-02-26T05:21:39;2.60;;;2.40;;
20375;SDS011;10347;51.828;6.466;2024-02-26T05:24:05;2.50;;;2.30;;
20375;SDS011;10347;51.828;6.466;2024-02-26T05:26:31;3.80;;;2.45;;
20375;SDS011;10347;51.828;6.466;2024-02-26T05:28:57;2.70;;;2.47;;
20375;SDS011;10347;51.828;6.466;2024-02-26T05:31:24;3.00;;;2.80;;
20375;SDS011;10347;51.828;6.466;2024-02-26T05:33:51;3.13;;;2.60;;
20375;SDS011;10347;51.828;6.466;2024-02-26T05:36:23;2.80;;;2.60;;
20375;SDS011;10347;51.828;6.466;2024-02-26T05:38:49;4.13;;;3.08;;
20375;SDS011;10347;51.828;6.466;2024-02-26T05:41:18;2.95;;;2.75;;
20375;SDS011;10347;51.828;6.466;2024-02-26T05:43:48;3.33;;;3.00;;
20375;SDS011;10347;51.828;6.466;2024-02-26T05:46:16;3.00;;;2.80;;
20375;SDS011;10347;51.828;6.466;2024-02-26T05:48:43;3.20;;;2.95;;
20375;SDS011;10347;51.828;6.466;2024-02-26T05:51:12;2.90;;;2.70;;
20375;SDS011;10347;51.828;6.466;2024-02-26T05:53:38;4.32;;;3.53;;
20375;SDS011;10347;51.828;6.466;2024-02-26T05:56:03;3.85;;;3.55;;
20375;SDS011;10347;51.828;6.466;2024-02-26T05:58:30;3.45;;;3.15;;
20375;SDS011;10347;51.828;6.466;2024-02-26T06:00:56;4.07;;;3.67;;
20375;SDS011;10347;51.828;6.466;2024-02-26T06:03:21;4.15;;;3.75;;
20375;SDS011;10347;51.828;6.466;2024-02-26T06:05:47;3.45;;;3.15;;
20375;SDS011;10347;51.828;6.466;2024-02-26T06:08:12;3.90;;;3.60;;
20375;SDS011;10347;51.828;6.466;2024-02-26T06:10:39;4.95;;;3.50;;
20375;SDS011;10347;51.828;6.466;2024-02-26T06:13:04;3.80;;;3.10;;
20375;SDS011;10347;51.828;6.466;2024-02-26T06:15:30;3.72;;;3.35;;
20375;SDS011;10347;51.828;6.466;2024-02-26T06:17:55;3.28;;;3.08;;
20375;SDS011;10347;51.828;6.466;2024-02-26T06:20:21;3.55;;;3.25;;
20375;SDS011;10347;51.828;6.466;2024-02-26T06:22:47;3.38;;;3.10;;
20375;SDS011;10347;51.828;6.466;2024-02-26T06:25:12;3.25;;;2.95;;
20375;SDS011;10347;51.828;6.466;2024-02-26T06:27:38;4.10;;;3.40;;
20375;SDS011;10347;51.828;6.466;2024-02-26T06:30:04;3.20;;;2.80;;
20375;SDS011;10347;51.828;6.466;2024-02-26T06:32:30;2.97;;;2.83;;
20375;SDS011;10347;51.828;6.466;2024-02-26T06:34:56;3.70;;;3.40;;
20375;SDS011;10347;51.828;6.466;2024-02-26T06:37:21;3.10;;;2.90;;
20375;SDS011;10347;51.828;6.466;2024-02-26T06:39:47;2.90;;;2.70;;
20375;SDS011;10347;51.828;6.466;2024-02-26T06:42:13;3.45;;;3.15;;
20375;SDS011;10347;51.828;6.466;2024-02-26T06:44:38;3.30;;;3.10;;
20375;SDS011;10347;51.828;6.466;2024-02-26T06:47:05;3.50;;;3.20;;
20375;SDS011;10347;51.828;6.466;2024-02-26T06:49:30;3.45;;;3.15;;
20375;SDS011;10347;51.828;6.466;2024-02-26T06:51:56;5.28;;;3.13;;
20375;SDS011;10347;51.828;6.466;2024-02-26T06:54:22;3.10;;;2.88;;
20375;SDS011;10347;51.828;6.466;2024-02-26T06:56:47;5.05;;;3.45;;
20375;SDS011;10347;51.828;6.466;2024-02-26T06:59:13;3.80;;;3.50;;
20375;SDS011;10347;51.828;6.466;2024-02-26T07:01:41;5.93;;;3.58;;
20375;SDS011;10347;51.828;6.466;2024-02-26T07:04:07;3.60;;;3.30;;
20375;SDS011;10347;51.828;6.466;2024-02-26T07:06:33;3.40;;;3.10;;
20375;SDS011;10347;51.828;6.466;2024-02-26T07:08:58;3.67;;;3.30;;
20375;SDS011;10347;51.828;6.466;2024-02-26T07:11:24;4.13;;;3.20;;
20375;SDS011;10347;51.828;6.466;2024-02-26T07:13:49;3.75;;;3.45;;
20375;SDS011;10347;51.828;6.466;2024-02-26T07:16:15;3.65;;;3.35;;
20375;SDS011;10347;51.828;6.466;2024-02-26T07:18:41;3.53;;;3.33;;
20375;SDS011;10347;51.828;6.466;2024-02-26T07:21:08;3.55;;;3.25;;
20375;SDS011;10347;51.828;6.466;2024-02-26T07:23:34;4.95;;;3.63;;
20375;SDS011;10347;51.828;6.466;2024-02-26T07:26:00;4.38;;;3.50;;
20375;SDS011;10347;51.828;6.466;2024-02-26T07:28:25;3.30;;;3.10;;
20375;SDS011;10347;51.828;6.466;2024-02-26T07:30:51;4.07;;;3.30;;
20375;SDS011;10347;51.828;6.466;2024-02-26T07:33:16;3.85;;;3.55;;
20375;SDS011;10347;51.828;6.466;2024-02-26T07:35:42;3.60;;;3.30;;
20375;SDS011;10347;51.828;6.466;2024-02-26T07:38:08;4.00;;;3.70;;
20375;SDS011;10347;51.828;6.466;2024-02-26T07:40:33;3.78;;;3.50;;
20375;SDS011;10347;51.828;6.466;2024-02-26T07:42:59;4.70;;;3.70;;
20375;SDS011;10347;51.828;6.466;2024-02-26T07:45:24;3.50;;;3.30;;
20375;SDS011;10347;51.828;6.466;2024-02-26T07:47:50;3.80;;;3.50;;
20375;SDS011;10347;51.828;6.466;2024-02-26T07:50:16;3.33;;;3.10;;
20375;SDS011;10347;51.828;6.466;2024-02-26T07:52:42;3.20;;;3.00;;
20375;SDS011;10347;51.828;6.466;2024-02-26T07:55:09;4.15;;;3.60;;
20375;SDS011;10347;51.828;6.466;2024-02-26T07:57:35;4.05;;;3.00;;
20375;SDS011;10347;51.828;6.466;2024-02-26T08:00:01;3.60;;;3.40;;
20375;SDS011;10347;51.828;6.466;2024-02-26T08:02:28;3.30;;;3.10;;
20375;SDS011;10347;51.828;6.466;2024-02-26T08:04:53;3.10;;;2.90;;
20375;SDS011;10347;51.828;6.466;2024-02-26T08:07:19;3.95;;;3.55;;
20375;SDS011;10347;51.828;6.466;2024-02-26T08:09:46;3.50;;;3.20;;
20375;SDS011;10347;51.828;6.466;2024-02-26T08:12:12;5.07;;;3.28;;
20375;SDS011;10347;51.828;6.466;2024-02-26T08:14:37;3.78;;;3.45;;
20375;SDS011;10347;51.828;6.466;2024-02-26T08:17:03;3.33;;;3.13;;
20375;SDS011;10347;51.828;6.466;2024-02-26T08:19:29;3.28;;;3.08;;
20375;SDS011;10347;51.828;6.466;2024-02-26T08:21:54;3.30;;;3.00;;
20375;SDS011;10347;51.828;6.466;2024-02-26T08:24:20;3.90;;;3.40;;
20375;SDS011;10347;51.828;6.466;2024-02-26T08:26:45;2.80;;;2.70;;
20375;SDS011;10347;51.828;6.466;2024-02-26T08:29:11;3.80;;;3.38;;
20375;SDS011;10347;51.828;6.466;2024-02-26T08:31:37;3.97;;;3.60;;
20375;SDS011;10347;51.828;6.466;2024-02-26T08:34:05;3.30;;;3.10;;
20375;SDS011;10347;51.828;6.466;2024-02-26T08:36:33;4.75;;;3.92;;
20375;SDS011;10347;51.828;6.466;2024-02-26T08:38:59;3.55;;;3.25;;
20375;SDS011;10347;51.828;6.466;2024-02-26T08:41:24;4.65;;;3.80;;
20375;SDS011;10347;51.828;6.466;2024-02-26T08:43:50;3.70;;;3.40;;
20375;SDS011;10347;51.828;6.466;2024-02-26T08:46:15;4.00;;;3.70;;
20375;SDS011;10347;51.828;6.466;2024-02-26T08:48:41;3.45;;;3.20;;
20375;SDS011;10347;51.828;6.466;2024-02-26T08:51:07;4.30;;;3.85;;
20375;SDS011;10347;51.828;6.466;2024-02-26T08:53:33;5.15;;;3.20;;
20375;SDS011;10347;51.828;6.466;2024-02-26T08:55:59;3.75;;;3.40;;
20375;SDS011;10347;51.828;6.466;2024-02-26T08:58:25;4.43;;;4.03;;
20375;SDS011;10347;51.828;6.466;2024-02-26T09:00:52;3.97;;;3.67;;
20375;SDS011;10347;51.828;6.466;2024-02-26T09:03:18;3.65;;;3.35;;
20375;SDS011;10347;51.828;6.466;2024-02-26T09:05:43;4.70;;;4.20;;
20375;SDS011;10347;51.828;6.466;2024-02-26T09:08:09;4.05;;;3.55;;
20375;SDS011;10347;51.828;6.466;2024-02-26T09:10:34;4.57;;;3.40;;
20375;SDS011;10347;51.828;6.466;2024-02-26T09:13:00;4.88;;;3.72;;
20375;SDS011;10347;51.828;6.466;2024-02-26T09:15:26;5.30;;;3.63;;
20375;SDS011;10347;51.828;6.466;2024-02-26T09:17:51;3.78;;;3.47;;
20375;SDS011;10347;51.828;6.466;2024-02-26T09:20:17;3.83;;;3.53;;
20375;SDS011;10347;51.828;6.466;2024-02-26T09:22:46;3.88;;;3.55;;
20375;SDS011;10347;51.828;6.466;2024-02-26T09:25:13;4.20;;;3.80;;
20375;SDS011;10347;51.828;6.466;2024-02-26T09:27:40;4.18;;;3.78;;
20375;SDS011;10347;51.828;6.466;2024-02-26T09:30:07;3.67;;;3.42;;
20375;SDS011;10347;51.828;6.466;2024-02-26T09:32:33;7.25;;;4.45;;
20375;SDS011;10347;51.828;6.466;2024-02-26T09:34:58;3.85;;;3.53;;
20375;SDS011;10347;51.828;6.466;2024-02-26T09:37:24;3.47;;;3.22;;
20375;SDS011;10347;51.828;6.466;2024-02-26T09:39:50;4.32;;;3.60;;
20375;SDS011;10347;51.828;6.466;2024-02-26T09:42:16;5.38;;;3.80;;
20375;SDS011;10347;51.828;6.466;2024-02-26T09:44:44;5.70;;;3.92;;
20375;SDS011;10347;51.828;6.466;2024-02-26T09:47:13;8.25;;;7.55;;
20375;SDS011;10347;51.828;6.466;2024-02-26T09:49:42;6.05;;;5.55;;
20375;SDS011;10347;51.828;6.466;2024-02-26T09:52:08;10.65;;;8.52;;
20375;SDS011;10347;51.828;6.466;2024-02-26T09:54:36;6.60;;;6.00;;
20375;SDS011;10347;51.828;6.466;2024-02-26T09:57:03;6.68;;;5.03;;
20375;SDS011;10347;51.828;6.466;2024-02-26T09:59:34;5.65;;;5.15;;
20375;SDS011;10347;51.828;6.466;2024-02-26T10:02:16;7.00;;;5.20;;
20375;SDS011;10347;51.828;6.466;2024-02-26T10:04:44;7.70;;;6.70;;
20375;SDS011;10347;51.828;6.466;2024-02-26T10:07:13;5.85;;;5.28;;
20375;SDS011;10347;51.828;6.466;2024-02-26T10:09:39;6.00;;;5.40;;
20375;SDS011;10347;51.828;6.466;2024-02-26T10:12:05;5.88;;;5.28;;
20375;SDS011;10347;51.828;6.466;2024-02-26T10:14:33;7.35;;;5.38;;
20375;SDS011;10347;51.828;6.466;2024-02-26T10:16:59;7.22;;;5.68;;
20375;SDS011;10347;51.828;6.466;2024-02-26T10:19:30;6.50;;;5.22;;
20375;SDS011;10347;51.828;6.466;2024-02-26T10:21:57;5.53;;;5.03;;
20375;SDS011;10347;51.828;6.466;2024-02-26T10:24:24;7.25;;;5.97;;
20375;SDS011;10347;51.828;6.466;2024-02-26T10:26:50;9.98;;;5.80;;
20375;SDS011;10347;51.828;6.466;2024-02-26T10:29:20;6.57;;;5.80;;
20375;SDS011;10347;51.828;6.466;2024-02-26T10:31:48;6.60;;;5.90;;
20375;SDS011;10347;51.828;6.466;2024-02-26T10:34:15;6.60;;;5.90;;
20375;SDS011;10347;51.828;6.466;2024-02-26T10:36:41;6.22;;;5.50;;
20375;SDS011;10347;51.828;6.466;2024-02-26T10:39:07;6.03;;;5.43;;
20375;SDS011;10347;51.828;6.466;2024-02-26T10:41:33;6.90;;;6.20;;
20375;SDS011;10347;51.828;6.466;2024-02-26T10:43:59;6.90;;;5.97;;
20375;SDS011;10347;51.828;6.466;2024-02-26T10:46:25;8.77;;;6.90;;
20375;SDS011;10347;51.828;6.466;2024-02-26T10:48:52;10.40;;;6.80;;
20375;SDS011;10347;51.828;6.466;2024-02-26T10:51:22;8.95;;;7.22;;
20375;SDS011;10347;51.828;6.466;2024-02-26T10:53:55;8.27;;;6.88;;
20375;SDS011;10347;51.828;6.466;2024-02-26T10:56:26;8.95;;;6.45;;
20375;SDS011;10347;51.828;6.466;2024-02-26T10:58:53;7.80;;;6.68;;
20375;SDS011;10347;51.828;6.466;2024-02-26T11:03:50;8.70;;;7.10;;
20375;SDS011;10347;51.828;6.466;2024-02-26T11:06:19;7.97;;;7.18;;
20375;SDS011;10347;51.828;6.466;2024-02-26T11:08:52;9.95;;;7.60;;
20375;SDS011;10347;51.828;6.466;2024-02-26T11:11:19;9.30;;;7.93;;
20375;SDS011;10347;51.828;6.466;2024-02-26T11:13:46;9.80;;;7.63;;
20375;SDS011;10347;51.828;6.466;2024-02-26T11:16:20;8.45;;;7.30;;
20375;SDS011;10347;51.828;6.466;2024-02-26T11:18:47;8.98;;;7.00;;
20375;SDS011;10347;51.828;6.466;2024-02-26T11:21:16;10.77;;;7.95;;
20375;SDS011;10347;51.828;6.466;2024-02-26T11:23:44;11.02;;;7.63;;
20375;SDS011;10347;51.828;6.466;2024-02-26T11:26:11;11.07;;;8.10;;
20375;SDS011;10347;51.828;6.466;2024-02-26T11:28:38;11.73;;;8.18;;
20375;SDS011;10347;51.828;6.466;2024-02-26T11:31:05;9.57;;;7.68;;
20375;SDS011;10347;51.828;6.466;2024-02-26T11:33:32;10.20;;;7.88;;
20375;SDS011;10347;51.828;6.466;2024-02-26T11:36:00;10.77;;;8.07;;
20375;SDS011;10347;51.828;6.466;2024-02-26T11:38:36;11.45;;;7.78;;
20375;SDS011;10347;51.828;6.466;2024-02-26T11:41:03;8.95;;;7.05;;
20375;SDS011;10347;51.828;6.466;2024-02-26T11:46:24;13.18;;;8.57;;
20375;SDS011;10347;51.828;6.466;2024-02-26T11:48:51;11.00;;;8.38;;
20375;SDS011;10347;51.828;6.466;2024-02-26T11:51:19;14.02;;;9.88;;
20375;SDS011;10347;51.828;6.466;2024-02-26T11:53:50;11.07;;;8.18;;
20375;SDS011;10347;51.828;6.466;2024-02-26T11:59:00;12.25;;;9.80;;
20375;SDS011;10347;51.828;6.466;2024-02-26T12:04:04;17.30;;;12.60;;
20375;SDS011;10347;51.828;6.466;2024-02-26T12:06:39;18.92;;;13.50;;
20375;SDS011;10347;51.828;6.466;2024-02-26T12:09:07;21.02;;;13.20;;
20375;SDS011;10347;51.828;6.466;2024-02-26T12:11:33;18.98;;;13.38;;
20375;SDS011;10347;51.828;6.466;2024-02-26T12:14:03;18.48;;;13.13;;
20375;SDS011;10347;51.828;6.466;2024-02-26T12:16:37;20.40;;;13.38;;
20375;SDS011;10347;51.828;6.466;2024-02-26T12:19:09;17.40;;;12.07;;
20375;SDS011;10347;51.828;6.466;2024-02-26T12:21:36;19.95;;;11.93;;
20375;SDS011;10347;51.828;6.466;2024-02-26T12:24:10;16.33;;;11.27;;
20375;SDS011;10347;51.828;6.466;2024-02-26T12:26:37;18.45;;;11.95;;
20375;SDS011;10347;51.828;6.466;2024-02-26T12:29:03;24.88;;;15.70;;
20375;SDS011;10347;51.828;6.466;2024-02-26T12:31:29;20.92;;;12.63;;
20375;SDS011;10347;51.828;6.466;2024-02-26T12:33:56;30.88;;;16.58;;
20375;SDS011;10347;51.828;6.466;2024-02-26T12:36:21;19.65;;;12.50;;
20375;SDS011;10347;51.828;6.466;2024-02-26T12:38:51;19.15;;;12.38;;
20375;SDS011;10347;51.828;6.466;2024-02-26T12:41:17;23.02;;;14.60;;
20375;SDS011;10347;51.828;6.466;2024-02-26T12:43:43;21.42;;;12.52;;
20375;SDS011;10347;51.828;6.466;2024-02-26T12:46:08;20.50;;;12.70;;
20375;SDS011;10347;51.828;6.466;2024-02-26T12:48:36;17.52;;;12.07;;
20375;SDS011;10347;51.828;6.466;2024-02-26T12:51:01;20.05;;;12.13;;
20375;SDS011;10347;51.828;6.466;2024-02-26T12:53:27;18.77;;;11.90;;
20375;SDS011;10347;51.828;6.466;2024-02-26T12:55:54;18.42;;;12.60;;
20375;SDS011;10347;51.828;6.466;2024-02-26T12:58:20;19.27;;;12.40;;
20375;SDS011;10347;51.828;6.466;2024-02-26T13:00:50;17.70;;;12.02;;
20375;SDS011;10347;51.828;6.466;2024-02-26T13:03:19;18.80;;;12.05;;
20375;SDS011;10347;51.828;6.466;2024-02-26T13:05:47;18.13;;;11.40;;
20375;SDS011;10347;51.828;6.466;2024-02-26T13:08:19;16.48;;;11.10;;
20375;SDS011;10347;51.828;6.466;2024-02-26T13:10:46;19.60;;;11.30;;
20375;SDS011;10347;51.828;6.466;2024-02-26T13:13:14;16.00;;;11.35;;
20375;SDS011;10347;51.828;6.466;2024-02-26T13:15:42;18.13;;;11.50;;
20375;SDS011;10347;51.828;6.466;2024-02-26T13:18:14;17.63;;;11.82;;
20375;SDS011;10347;51.828;6.466;2024-02-26T13:20:40;18.70;;;11.40;;
20375;SDS011;10347;51.828;6.466;2024-02-26T13:23:06;17.65;;;11.07;;
20375;SDS011;10347;51.828;6.466;2024-02-26T13:25:33;15.20;;;10.55;;
20375;SDS011;10347;51.828;6.466;2024-02-26T13:28:09;14.82;;;10.00;;
20375;SDS011;10347;51.828;6.466;2024-02-26T13:30:54;15.10;;;9.90;;
20375;SDS011;10347;51.828;6.466;2024-02-26T13:33:24;12.20;;;9.18;;
20375;SDS011;10347;51.828;6.466;2024-02-26T13:35:52;14.10;;;9.45;;
20375;SDS011;10347;51.828;6.466;2024-02-26T13:38:19;12.70;;;8.98;;
20375;SDS011;10347;51.828;6.466;2024-02-26T13:40:45;15.38;;;10.85;;
20375;SDS011;10347;51.828;6.466;2024-02-26T13:43:11;15.65;;;9.90;;
20375;SDS011;10347;51.828;6.466;2024-02-26T13:45:37;12.18;;;9.35;;
20375;SDS011;10347;51.828;6.466;2024-02-26T13:48:08;13.50;;;9.30;;
20375;SDS011;10347;51.828;6.466;2024-02-26T13:50:36;13.77;;;9.93;;
20375;SDS011;10347;51.828;6.466;2024-02-26T13:53:05;13.18;;;9.23;;
20375;SDS011;10347;51.828;6.466;2024-02-26T13:55:31;12.10;;;8.48;;
20375;SDS011;10347;51.828;6.466;2024-02-26T13:57:58;14.85;;;9.30;;
20375;SDS011;10347;51.828;6.466;2024-02-26T14:00:26;14.88;;;9.85;;
20375;SDS011;10347;51.828;6.466;2024-02-26T14:02:53;12.85;;;9.02;;
20375;SDS011;10347;51.828;6.466;2024-02-26T14:05:19;15.23;;;10.00;;
20375;SDS011;10347;51.828;6.466;2024-02-26T14:07:45;13.15;;;9.57;;
20375;SDS011;10347;51.828;6.466;2024-02-26T14:10:13;12.88;;;9.40;;
20375;SDS011;10347;51.828;6.466;2024-02-26T14:12:39;13.82;;;11.00;;
20375;SDS011;10347;51.828;6.466;2024-02-26T14:15:07;12.30;;;9.30;;
20375;SDS011;10347;51.828;6.466;2024-02-26T14:17:34;12.38;;;8.50;;
20375;SDS011;10347;51.828;6.466;2024-02-26T14:20:00;12.77;;;9.15;;
20375;SDS011;10347;51.828;6.466;2024-02-26T14:22:26;13.00;;;9.00;;
20375;SDS011;10347;51.828;6.466;2024-02-26T14:24:52;10.65;;;8.50;;
20375;SDS011;10347;51.828;6.466;2024-02-26T14:27:18;11.38;;;8.93;;
20375;SDS011;10347;51.828;6.466;2024-02-26T14:29:47;13.32;;;9.35;;
20375;SDS011;10347;51.828;6.466;2024-02-26T14:32:13;11.70;;;8.95;;
20375;SDS011;10347;51.828;6.466;2024-02-26T14:34:38;13.18;;;9.80;;
20375;SDS011;10347;51.828;6.466;2024-02-26T14:37:04;13.50;;;9.38;;
20375;SDS011;10347;51.828;6.466;2024-02-26T14:39:31;13.40;;;9.20;;
20375;SDS011;10347;51.828;6.466;2024-02-26T14:41:57;12.20;;;9.07;;
20375;SDS011;10347;51.828;6.466;2024-02-26T14:44:23;14.63;;;9.43;;
20375;SDS011;10347;51.828;6.466;2024-02-26T14:46:49;13.48;;;9.85;;
20375;SDS011;10347;51.828;6.466;2024-02-26T14:49:16;13.10;;;9.27;;